Time;durP1;ratioP1;P1;durP2;ratioP2;P2;SDS_P1;SDS_P2;PMS_P1;PMS_P2;Temp;Humidity;BMP_temperature;BMP_pressure;BME280_temperature;BME280_humidity;BME280_pressure;Samples;Min_cycle;Max_cycle;Signal;HPM_P1;HPM_P2
2022/08/21 00:01:49;;;;;;;8.45;4.22;;;;;;;20.63;86.33;98462.02;1745694;81;21583;-79
2022/08/21 00:04:16;;;;;;;9.25;4.12;;;;;;;20.61;86.13;98473.64;1742664;81;21002;-79
2022/08/21 00:06:43;;;;;;;12.82;4.22;;;;;;;20.60;85.87;98470.66;1713868;84;21392;-79
2022/08/21 00:09:10;;;;;;;18.32;4.60;;;;;;;20.55;86.54;98482.00;1695660;84;21505;-79
2022/08/21 00:11:39;;;;;;;12.15;4.37;;;;;;;20.55;85.92;98479.36;1753172;82;21035;-80
2022/08/21 00:14:09;;;;;;;16.23;5.10;;;;;;;20.48;86.43;98476.84;1753414;81;21110;-79
2022/08/21 00:16:36;;;;;;;11.48;5.62;;;;;;;20.43;87.49;98484.63;1751342;82;21031;-80
2022/08/21 00:19:03;;;;;;;12.43;4.87;;;;;;;20.41;87.71;98479.08;1684179;84;21067;-81
2022/08/21 00:21:30;;;;;;;13.10;4.20;;;;;;;20.39;87.67;98477.04;1705860;84;21043;-80
2022/08/21 00:23:57;;;;;;;13.95;4.92;;;;;;;20.39;87.35;98481.00;1689596;84;21024;-81
2022/08/21 00:26:23;;;;;;;9.73;4.15;;;;;;;20.40;86.85;98479.57;1707240;84;21326;-79
2022/08/21 00:28:50;;;;;;;23.83;5.35;;;;;;;20.41;86.71;98483.91;1715135;83;21080;-79
2022/08/21 00:31:17;;;;;;;16.40;5.20;;;;;;;20.39;86.98;98477.91;1701711;81;21266;-81
2022/08/21 00:33:45;;;;;;;10.85;4.47;;;;;;;20.41;86.03;98482.59;1709471;81;21239;-81
2022/08/21 00:36:12;;;;;;;11.80;5.05;;;;;;;20.38;85.66;98477.53;1714398;82;21016;-81
2022/08/21 00:38:39;;;;;;;14.63;5.42;;;;;;;20.35;86.61;98476.45;1704954;84;21083;-81
2022/08/21 00:41:08;;;;;;;11.45;4.60;;;;;;;20.31;87.59;98468.37;1712615;84;21014;-80
2022/08/21 00:43:37;;;;;;;12.70;5.62;;;;;;;20.31;87.57;98459.62;1694069;84;21082;-81
2022/08/21 00:46:06;;;;;;;14.75;5.47;;;;;;;20.30;87.78;98454.83;1711818;84;21015;-80
2022/08/21 00:48:34;;;;;;;14.07;5.65;;;;;;;20.29;86.74;98457.09;1710159;84;21019;-80
2022/08/21 00:51:09;;;;;;;11.35;4.80;;;;;;;20.31;86.75;98461.77;1709965;84;21058;-80
2022/08/21 00:53:40;;;;;;;15.28;5.37;;;;;;;20.34;87.28;98464.69;1712306;84;21035;-80
2022/08/21 00:56:09;;;;;;;13.62;5.22;;;;;;;20.36;87.77;98470.20;1712087;84;21065;-79
2022/08/21 00:58:39;;;;;;;13.83;5.00;;;;;;;20.39;88.18;98471.30;1712339;84;21036;-79
2022/08/21 01:01:08;;;;;;;14.60;4.70;;;;;;;20.40;89.83;98475.61;1712458;84;20999;-80
2022/08/21 01:03:35;;;;;;;10.90;4.33;;;;;;;20.38;88.83;98472.25;1712415;84;21058;-79
2022/08/21 01:06:04;;;;;;;12.75;4.87;;;;;;;20.36;87.69;98466.24;1712183;84;21022;-79
2022/08/21 01:08:32;;;;;;;12.50;4.67;;;;;;;20.30;88.39;98465.39;1712404;84;21027;-79
2022/08/21 01:11:00;;;;;;;15.75;5.12;;;;;;;20.23;88.85;98457.55;1712145;84;21024;-79
2022/08/21 01:13:30;;;;;;;14.73;5.20;;;;;;;20.15;90.89;98452.02;1712331;84;21380;-80
2022/08/21 01:16:00;;;;;;;16.17;5.47;;;;;;;20.12;89.60;98452.26;1686902;84;21030;-79
2022/08/21 01:18:28;;;;;;;12.25;5.12;;;;;;;20.10;90.19;98456.81;1686714;85;22143;-79
2022/08/21 01:21:14;;;;;;;19.25;5.87;;;;;;;20.08;88.98;98450.80;1675480;85;21075;-80
2022/08/21 01:23:44;;;;;;;16.37;5.67;;;;;;;20.08;88.86;98446.84;1695624;83;21059;-79
2022/08/21 01:26:15;;;;;;;14.00;5.50;;;;;;;20.06;89.92;98455.70;1687087;84;21050;-80
2022/08/21 01:28:50;;;;;;;18.85;5.67;;;;;;;20.05;91.05;98452.72;1676340;84;21025;-81
2022/08/21 01:31:20;;;;;;;16.55;5.05;;;;;;;20.09;88.48;98441.43;1704462;84;21058;-80
2022/08/21 01:33:46;;;;;;;12.53;5.12;;;;;;;20.08;90.21;98446.36;1703798;84;20991;-79
2022/08/21 01:36:13;;;;;;;9.88;5.15;;;;;;;19.99;92.81;98455.78;1699214;84;21404;-79
2022/08/21 01:38:40;;;;;;;15.15;5.30;;;;;;;20.00;92.19;98456.16;1683022;84;20995;-80
2022/08/21 01:41:07;;;;;;;13.80;5.30;;;;;;;20.04;89.95;98456.78;1679290;85;21582;-79
2022/08/21 01:43:35;;;;;;;20.50;5.65;;;;;;;20.01;90.87;98469.70;1699420;83;21083;-79
2022/08/21 01:46:04;;;;;;;12.98;4.85;;;;;;;20.01;90.08;98473.66;1672570;85;21033;-79
2022/08/21 01:48:31;;;;;;;12.50;4.80;;;;;;;19.99;91.15;98468.97;1692066;84;21057;-79
2022/08/21 01:50:57;;;;;;;17.02;5.40;;;;;;;19.99;90.25;98458.42;1704174;83;21083;-82
2022/08/21 01:53:24;;;;;;;17.00;5.83;;;;;;;19.94;91.52;98447.38;1704455;84;21066;-80
2022/08/21 01:55:51;;;;;;;10.63;5.22;;;;;;;19.86;91.52;98440.03;1704914;84;22154;-79
2022/08/21 01:58:18;;;;;;;15.30;5.83;;;;;;;19.78;93.32;98429.69;1704409;84;21003;-79
2022/08/21 02:00:44;;;;;;;11.85;5.20;;;;;;;19.75;93.50;98425.95;1700826;84;21030;-81
2022/08/21 02:03:12;;;;;;;10.28;5.03;;;;;;;19.75;92.28;98428.09;1679074;85;21360;-79
2022/08/21 02:05:39;;;;;;;10.53;4.75;;;;;;;19.73;92.79;98427.86;1701062;84;21507;-80
2022/08/21 02:08:07;;;;;;;9.55;5.03;;;;;;;19.73;92.45;98423.91;1699115;84;21033;-80
2022/08/21 02:10:34;;;;;;;14.23;5.75;;;;;;;19.73;92.16;98421.27;1699119;84;21014;-79
2022/08/21 02:13:01;;;;;;;13.03;5.45;;;;;;;19.71;92.53;98410.82;1703324;84;21005;-79
2022/08/21 02:15:31;;;;;;;16.75;4.87;;;;;;;19.69;92.54;98408.74;1686713;83;21594;-79
2022/08/21 02:18:01;;;;;;;13.90;5.20;;;;;;;19.74;92.62;98419.01;1706282;84;21567;-78
2022/08/21 02:20:34;;;;;;;13.58;4.78;;;;;;;19.82;93.18;98420.59;1687550;84;20994;-79
2022/08/21 02:23:01;;;;;;;14.53;5.12;;;;;;;19.87;92.22;98410.53;1727691;83;21079;-80
2022/08/21 02:25:28;;;;;;;10.48;4.55;;;;;;;19.92;92.11;98400.49;1728881;83;21050;-80
2022/08/21 02:27:55;;;;;;;14.75;5.25;;;;;;;19.94;90.84;98400.39;1701084;83;21064;-79
2022/08/21 02:30:27;;;;;;;12.75;5.45;;;;;;;19.91;91.56;98397.96;1681715;85;21035;-79
2022/08/21 02:32:55;;;;;;;14.90;6.17;;;;;;;19.88;91.53;98401.67;1674673;85;21066;-79
2022/08/21 02:35:23;;;;;;;15.98;5.45;;;;;;;19.93;92.55;98395.56;1704592;83;21472;-79
2022/08/21 02:37:55;;;;;;;9.85;5.30;;;;;;;20.00;92.50;98392.01;1703805;83;21619;-79
2022/08/21 02:40:26;;;;;;;12.40;5.45;;;;;;;20.08;93.58;98401.50;1720513;82;21011;-79
2022/08/21 02:42:53;;;;;;;7.40;4.50;;;;;;;20.15;93.36;98396.59;1751223;82;21040;-79
2022/08/21 02:45:20;;;;;;;11.03;5.22;;;;;;;20.22;93.17;98396.50;1751487;82;21526;-80
2022/08/21 02:47:51;;;;;;;11.55;5.22;;;;;;;20.25;93.43;98403.72;1744920;82;21598;-80
2022/08/21 02:50:32;;;;;;;15.88;4.75;;;;;;;20.29;93.62;98396.38;1727612;83;21079;-79
2022/08/21 02:52:59;;;;;;;12.13;6.15;;;;;;;20.32;92.48;98396.65;1712105;83;21067;-80
2022/08/21 02:55:29;;;;;;;15.15;5.33;;;;;;;20.33;92.72;98400.95;1728021;83;21050;-79
2022/08/21 02:57:58;;;;;;;11.78;5.20;;;;;;;20.37;92.59;98400.63;1750323;82;21510;-80
2022/08/21 03:00:27;;;;;;;11.83;5.58;;;;;;;20.37;92.04;98394.02;1751478;82;21472;-79
2022/08/21 03:02:55;;;;;;;10.48;5.50;;;;;;;20.37;91.46;98389.20;1730318;82;21503;-79
2022/08/21 03:05:24;;;;;;;18.52;6.30;;;;;;;20.37;92.03;98383.47;1728172;83;21487;-79
2022/08/21 03:07:52;;;;;;;11.00;4.75;;;;;;;20.40;91.96;98386.34;1731253;82;21019;-79
2022/08/21 03:10:21;;;;;;;11.83;4.60;;;;;;;20.40;91.75;98386.34;1743492;82;21074;-80
2022/08/21 03:12:48;;;;;;;10.85;4.58;;;;;;;20.41;91.76;98391.97;1742633;82;21027;-80
2022/08/21 03:15:18;;;;;;;14.60;5.40;;;;;;;20.40;91.26;98396.41;1749514;81;21491;-80
2022/08/21 03:17:46;;;;;;;12.40;4.85;;;;;;;20.40;92.31;98396.41;1769887;81;20999;-79
2022/08/21 03:20:17;;;;;;;10.65;4.83;;;;;;;20.42;92.36;98405.05;1769990;81;21545;-79
2022/08/21 03:22:44;;;;;;;14.05;5.00;;;;;;;20.42;91.69;98406.38;1769762;81;21093;-79
2022/08/21 03:25:11;;;;;;;13.83;5.25;;;;;;;20.42;91.75;98415.61;1769934;81;21075;-80
2022/08/21 03:27:38;;;;;;;8.83;4.72;;;;;;;20.42;90.41;98434.58;1769719;81;21097;-79
2022/08/21 03:30:08;;;;;;;13.25;5.20;;;;;;;20.38;90.17;98433.97;1770017;81;21019;-79
2022/08/21 03:32:36;;;;;;;17.20;4.78;;;;;;;20.38;91.54;98447.66;1716287;83;21020;-79
2022/08/21 03:35:04;;;;;;;18.70;5.22;;;;;;;20.38;91.21;98455.58;1752673;81;21476;-79
2022/08/21 03:37:31;;;;;;;10.30;5.05;;;;;;;20.38;90.37;98452.94;1737869;81;21007;-79
2022/08/21 03:39:59;;;;;;;15.83;5.65;;;;;;;20.35;91.16;98459.30;1726791;82;21051;-79
2022/08/21 03:42:26;;;;;;;12.95;5.28;;;;;;;20.34;91.56;98460.23;1756948;81;21008;-79
2022/08/21 03:44:53;;;;;;;9.63;4.37;;;;;;;20.35;91.03;98472.50;1762087;81;21016;-80
2022/08/21 03:47:21;;;;;;;10.93;4.65;;;;;;;20.33;89.98;98477.50;1731942;81;21075;-80
2022/08/21 03:49:48;;;;;;;13.90;4.75;;;;;;;20.30;90.01;98476.43;1736618;83;21002;-79
2022/08/21 03:52:16;;;;;;;16.25;5.67;;;;;;;20.23;90.38;98482.63;1754899;81;21767;-79
2022/08/21 03:54:44;;;;;;;10.82;4.97;;;;;;;20.20;90.52;98489.47;1727025;82;21010;-80
2022/08/21 03:57:11;;;;;;;13.70;5.20;;;;;;;20.18;90.40;98485.62;1742752;81;21003;-80
2022/08/21 03:59:39;;;;;;;14.53;6.17;;;;;;;20.15;90.98;98483.67;1737889;81;21042;-80
2022/08/21 04:02:07;;;;;;;12.23;4.67;;;;;;;20.10;90.24;98488.47;1707494;84;20975;-79
2022/08/21 04:04:34;;;;;;;17.27;5.60;;;;;;;20.09;90.46;98487.61;1707292;84;21052;-80
2022/08/21 04:07:02;;;;;;;12.82;4.95;;;;;;;20.04;91.33;98481.84;1707475;84;21004;-79
2022/08/21 04:09:29;;;;;;;12.20;4.97;;;;;;;19.98;91.73;98495.49;1707283;84;21521;-80
2022/08/21 04:11:58;;;;;;;16.97;5.87;;;;;;;19.96;91.67;98502.67;1724423;82;21047;-79
2022/08/21 04:14:25;;;;;;;9.83;5.22;;;;;;;19.94;91.93;98508.06;1707206;84;21033;-79
2022/08/21 04:16:52;;;;;;;15.20;5.25;;;;;;;19.94;91.10;98506.73;1699375;84;21059;-80
2022/08/21 04:19:18;;;;;;;13.38;5.37;;;;;;;19.95;91.52;98509.73;1715245;84;21066;-80
2022/08/21 04:21:45;;;;;;;14.65;5.78;;;;;;;19.95;91.13;98511.05;1715125;84;21594;-79
2022/08/21 04:24:12;;;;;;;11.35;5.65;;;;;;;19.94;91.38;98510.70;1704951;84;21078;-79
2022/08/21 04:26:39;;;;;;;12.28;5.70;;;;;;;19.93;92.41;98502.41;1705458;84;21011;-79
2022/08/21 04:29:07;;;;;;;14.53;6.37;;;;;;;19.96;91.87;98513.23;1707060;84;21022;-79
2022/08/21 04:31:36;;;;;;;14.43;6.15;;;;;;;19.94;92.15;98506.73;1703646;84;21027;-79
2022/08/21 04:34:05;;;;;;;12.55;5.72;;;;;;;19.93;92.23;98506.36;1694871;84;21008;-80
2022/08/21 04:36:35;;;;;;;14.85;6.45;;;;;;;19.94;92.46;98503.27;1715323;84;21050;-81
2022/08/21 04:39:01;;;;;;;12.68;6.08;;;;;;;19.92;92.36;98490.18;1715129;84;21078;-80
2022/08/21 04:41:28;;;;;;;18.90;6.03;;;;;;;19.95;93.77;98486.47;1715172;84;21070;-79
2022/08/21 04:43:55;;;;;;;14.07;6.00;;;;;;;19.96;93.94;98477.13;1715262;84;21328;-79
2022/08/21 04:46:23;;;;;;;13.32;6.70;;;;;;;19.96;95.17;98472.34;1751747;81;21535;-78
2022/08/21 04:48:49;;;;;;;19.92;7.58;;;;;;;19.94;95.22;98457.94;1704325;83;21011;-79
2022/08/21 04:51:22;;;;;;;16.87;7.15;;;;;;;19.92;94.50;98457.20;1702386;84;21514;-79
2022/08/21 04:53:57;;;;;;;19.60;7.25;;;;;;;19.90;94.80;98459.12;1742421;82;21090;-79
2022/08/21 04:56:43;;;;;;;16.40;6.85;;;;;;;19.89;94.42;98464.02;1726466;83;21062;-79
2022/08/21 04:59:20;;;;;;;19.50;7.58;;;;;;;19.90;93.70;98472.30;1684622;84;21019;-78
2022/08/21 05:01:49;;;;;;;19.98;7.65;;;;;;;19.95;93.80;98484.66;1695123;83;21349;-79
2022/08/21 05:04:19;;;;;;;14.40;6.70;;;;;;;19.99;93.58;98486.12;1715369;83;21114;-79
2022/08/21 05:06:49;;;;;;;16.93;7.33;;;;;;;20.01;92.67;98486.84;1715246;84;21530;-78
2022/08/21 05:09:18;;;;;;;18.40;6.70;;;;;;;19.98;94.14;98491.05;1694153;84;21058;-78
2022/08/21 05:11:45;;;;;;;17.48;6.60;;;;;;;20.02;93.37;98498.27;1705454;84;21026;-79
2022/08/21 05:14:13;;;;;;;11.68;6.75;;;;;;;20.03;93.01;98503.44;1686512;84;21042;-78
2022/08/21 05:16:41;;;;;;;16.82;7.40;;;;;;;20.04;93.21;98513.51;1678797;84;21054;-79
2022/08/21 05:19:08;;;;;;;18.73;9.63;;;;;;;20.11;93.75;98523.13;1693553;84;21023;-79
2022/08/21 05:21:38;;;;;;;16.37;7.97;;;;;;;20.16;94.23;98522.32;1695787;84;21059;-79
2022/08/21 05:24:04;;;;;;;16.73;7.83;;;;;;;20.22;94.22;98528.46;1676052;84;21113;-79
2022/08/21 05:26:31;;;;;;;16.62;8.20;;;;;;;20.28;95.09;98525.37;1693363;84;21575;-78
2022/08/21 05:28:58;;;;;;;17.45;6.65;;;;;;;20.33;93.66;98530.30;1697824;84;21035;-79
2022/08/21 05:31:25;;;;;;;21.73;7.80;;;;;;;20.35;93.83;98522.65;1689042;84;20999;-79
2022/08/21 05:33:52;;;;;;;17.45;6.40;;;;;;;20.40;94.10;98520.49;1754180;82;21021;-79
2022/08/21 05:36:19;;;;;;;14.50;6.72;;;;;;;20.45;92.83;98514.86;1741680;81;20990;-79
2022/08/21 05:38:46;;;;;;;12.58;6.70;;;;;;;20.42;93.53;98516.42;1755122;82;21053;-80
2022/08/21 05:41:13;;;;;;;23.30;6.60;;;;;;;20.48;94.36;98523.88;1760137;82;21005;-80
2022/08/21 05:43:39;;;;;;;14.03;6.80;;;;;;;20.55;94.27;98526.89;1747635;82;21288;-78
2022/08/21 05:46:08;;;;;;;20.37;7.28;;;;;;;20.55;92.73;98511.05;1753460;81;21545;-79
2022/08/21 05:48:36;;;;;;;15.18;6.53;;;;;;;20.47;92.13;98508.98;1737852;82;21035;-79
2022/08/21 05:51:12;;;;;;;16.42;6.97;;;;;;;20.39;92.17;98515.31;1758971;79;21024;-80
2022/08/21 05:53:41;;;;;;;15.35;7.75;;;;;;;20.36;92.60;98517.72;1760827;81;21000;-80
2022/08/21 05:56:10;;;;;;;17.37;7.42;;;;;;;20.35;92.40;98510.77;1757904;82;21560;-79
2022/08/21 05:58:36;;;;;;;18.32;7.17;;;;;;;20.37;92.12;98507.98;1757274;82;21005;-78
2022/08/21 06:01:06;;;;;;;16.45;7.35;;;;;;;20.33;92.88;98499.45;1757412;82;21067;-78
2022/08/21 06:03:37;;;;;;;13.58;6.12;;;;;;;20.32;93.03;98492.51;1757330;82;21053;-79
2022/08/21 06:06:04;;;;;;;14.23;6.50;;;;;;;20.30;94.21;98477.27;1757430;82;21020;-79
2022/08/21 06:08:31;;;;;;;24.52;7.42;;;;;;;20.25;94.52;98472.80;1757317;82;21022;-79
2022/08/21 06:11:00;;;;;;;17.02;6.78;;;;;;;20.23;93.92;98460.19;1757081;82;21024;-79
2022/08/21 06:13:26;;;;;;;18.02;6.72;;;;;;;20.16;94.96;98466.91;1746279;80;21007;-79
2022/08/21 06:16:10;;;;;;;15.18;6.58;;;;;;;20.14;93.91;98472.29;1756610;81;21047;-79
2022/08/21 06:18:38;;;;;;;15.18;7.12;;;;;;;20.13;92.62;98470.59;1756900;81;21011;-80
2022/08/21 06:21:05;;;;;;;14.80;6.40;;;;;;;20.13;93.47;98469.27;1732800;81;21010;-79
2022/08/21 06:23:33;;;;;;;17.35;6.55;;;;;;;20.16;93.65;98464.27;1752373;81;21613;-80
2022/08/21 06:26:03;;;;;;;18.00;6.00;;;;;;;20.17;93.72;98465.93;1759504;81;20988;-79
2022/08/21 06:28:32;;;;;;;19.73;6.62;;;;;;;20.22;94.68;98485.75;1759061;81;21046;-80
2022/08/21 06:30:58;;;;;;;15.43;6.17;;;;;;;20.28;94.64;98487.09;1758513;81;21762;-79
2022/08/21 06:33:25;;;;;;;14.35;6.78;;;;;;;20.31;94.39;98484.20;1744089;81;21029;-80
2022/08/21 06:35:51;;;;;;;10.68;6.25;;;;;;;20.36;94.73;98486.04;1746784;81;21566;-79
2022/08/21 06:38:19;;;;;;;12.80;6.17;;;;;;;20.43;94.45;98481.99;1747026;81;21035;-80
2022/08/21 06:40:46;;;;;;;16.12;5.92;;;;;;;20.52;94.90;98474.33;1761660;81;21078;-80
2022/08/21 06:43:16;;;;;;;17.60;5.70;;;;;;;20.54;93.36;98466.64;1764004;81;21515;-80
2022/08/21 06:45:44;;;;;;;14.90;7.20;;;;;;;20.57;93.97;98473.48;1743370;81;21019;-79
2022/08/21 06:48:11;;;;;;;12.20;5.80;;;;;;;20.64;94.06;98473.42;1758447;81;21145;-80
2022/08/21 06:50:38;;;;;;;12.73;5.65;;;;;;;20.72;94.60;98471.03;1758316;81;21004;-80
2022/08/21 06:53:09;;;;;;;10.00;5.20;;;;;;;20.80;93.50;98468.64;1761550;81;21496;-80
2022/08/21 06:55:38;;;;;;;12.30;5.22;;;;;;;20.84;93.52;98466.61;1761125;81;21027;-80
2022/08/21 06:58:06;;;;;;;13.18;5.20;;;;;;;20.91;93.72;98473.11;1758385;81;20997;-80
2022/08/21 07:00:34;;;;;;;10.28;5.05;;;;;;;21.02;93.67;98469.62;1758496;81;21011;-79
2022/08/21 07:03:01;;;;;;;10.38;4.72;;;;;;;21.11;92.63;98470.23;1756536;81;21078;-79
2022/08/21 07:05:29;;;;;;;12.88;4.90;;;;;;;21.15;92.75;98469.03;1750022;81;21046;-80
2022/08/21 07:07:57;;;;;;;11.50;4.97;;;;;;;21.28;92.13;98468.89;1760382;81;21075;-80
2022/08/21 07:10:26;;;;;;;13.68;4.70;;;;;;;21.37;91.63;98465.52;1758395;81;21070;-80
2022/08/21 07:12:54;;;;;;;9.18;4.30;;;;;;;21.46;91.74;98462.64;1752602;81;20964;-80
2022/08/21 07:15:21;;;;;;;10.28;4.95;;;;;;;21.54;91.18;98458.90;1743583;81;21011;-80
2022/08/21 07:17:48;;;;;;;11.95;4.80;;;;;;;21.60;90.46;98463.70;1763697;81;21030;-79
2022/08/21 07:20:15;;;;;;;8.00;4.67;;;;;;;21.81;91.03;98469.55;1764527;81;20971;-80
2022/08/21 07:22:42;;;;;;;9.98;4.95;;;;;;;21.98;91.09;98467.67;1767021;81;21056;-81
2022/08/21 07:25:09;;;;;;;11.55;4.45;;;;;;;22.18;90.95;98470.48;1763795;81;21050;-80
2022/08/21 07:27:36;;;;;;;10.18;4.17;;;;;;;22.35;90.75;98469.96;1765917;81;21058;-80
2022/08/21 07:30:05;;;;;;;9.73;4.70;;;;;;;22.52;90.30;98463.72;1769491;81;21083;-79
2022/08/21 07:32:32;;;;;;;10.88;4.33;;;;;;;22.69;89.94;98459.16;1769420;81;21535;-79
2022/08/21 07:34:59;;;;;;;9.15;4.80;;;;;;;22.87;89.24;98467.84;1751146;81;21008;-80
2022/08/21 07:37:25;;;;;;;9.35;3.90;;;;;;;23.00;88.03;98471.13;1742065;81;21578;-80
2022/08/21 07:39:52;;;;;;;7.83;4.17;;;;;;;23.15;87.39;98467.65;1763791;81;21066;-80
2022/08/21 07:42:19;;;;;;;10.55;4.65;;;;;;;23.25;86.55;98471.66;1747182;81;21007;-80
2022/08/21 07:44:45;;;;;;;8.88;4.20;;;;;;;23.38;85.87;98467.80;1769469;81;21515;-81
2022/08/21 07:47:12;;;;;;;9.85;4.37;;;;;;;23.51;84.52;98462.23;1769688;81;21014;-80
2022/08/21 07:49:39;;;;;;;11.20;4.00;;;;;;;23.55;84.33;98460.98;1769405;81;20996;-81
2022/08/21 07:52:06;;;;;;;7.80;4.03;;;;;;;23.58;83.30;98450.62;1769474;81;21175;-80
2022/08/21 07:54:32;;;;;;;8.35;3.67;;;;;;;23.62;82.91;98450.20;1758961;81;21007;-80
2022/08/21 07:56:59;;;;;;;9.88;4.08;;;;;;;23.68;82.68;98446.66;1752836;81;21059;-80
2022/08/21 07:59:27;;;;;;;10.30;3.65;;;;;;;23.69;81.46;98449.15;1767928;81;21499;-80
2022/08/21 08:01:53;;;;;;;7.37;2.98;;;;;;;23.79;82.03;98443.39;1766514;81;21332;-80
2022/08/21 08:04:20;;;;;;;5.35;3.00;;;;;;;23.87;81.28;98448.02;1765109;81;21459;-80
2022/08/21 08:06:47;;;;;;;11.40;4.15;;;;;;;23.78;78.82;98440.90;1763991;81;20968;-81
2022/08/21 08:09:15;;;;;;;7.05;3.30;;;;;;;23.81;78.78;98433.50;1763849;81;21537;-80
2022/08/21 08:11:43;;;;;;;9.23;3.90;;;;;;;23.81;77.10;98437.95;1741991;81;20992;-80
2022/08/21 08:14:10;;;;;;;5.72;3.17;;;;;;;23.83;76.61;98434.67;1766257;81;21027;-80
2022/08/21 08:16:37;;;;;;;7.60;3.77;;;;;;;23.86;76.35;98437.06;1765230;81;21091;-80
2022/08/21 08:19:04;;;;;;;7.15;3.90;;;;;;;23.91;75.73;98424.19;1763828;81;21058;-80
2022/08/21 08:21:32;;;;;;;8.38;3.00;;;;;;;24.01;76.22;98426.84;1767723;81;21018;-80
2022/08/21 08:23:59;;;;;;;8.60;3.25;;;;;;;24.07;75.90;98418.81;1763753;81;21070;-80
2022/08/21 08:26:26;;;;;;;7.05;3.75;;;;;;;23.96;74.63;98414.50;1763807;81;21071;-80
2022/08/21 08:28:52;;;;;;;8.35;3.52;;;;;;;24.02;75.29;98415.27;1742086;81;21039;-81
2022/08/21 08:31:19;;;;;;;7.87;3.58;;;;;;;24.13;75.61;98416.92;1751620;81;20991;-80
2022/08/21 08:33:46;;;;;;;7.87;2.95;;;;;;;24.21;75.56;98422.36;1763865;81;21007;-80
2022/08/21 08:36:15;;;;;;;6.03;2.85;;;;;;;24.28;74.90;98426.64;1763918;81;21004;-81
2022/08/21 08:38:42;;;;;;;6.28;3.10;;;;;;;24.29;75.34;98431.81;1762876;81;21066;-80
2022/08/21 08:41:14;;;;;;;7.30;3.05;;;;;;;24.35;73.78;98441.01;1749781;81;21007;-81
2022/08/21 08:43:46;;;;;;;7.97;3.05;;;;;;;24.40;73.89;98448.91;1765364;81;21015;-82
2022/08/21 08:46:16;;;;;;;8.08;3.45;;;;;;;24.56;74.40;98444.86;1761002;81;21011;-81
2022/08/21 08:49:04;;;;;;;6.72;3.25;;;;;;;24.71;74.48;98443.91;1764039;81;21050;-81
2022/08/21 08:51:42;;;;;;;7.35;3.52;;;;;;;24.88;74.06;98451.63;1764115;81;21015;-80
2022/08/21 08:54:19;;;;;;;7.15;3.50;;;;;;;25.03;74.02;98446.20;1763831;81;21511;-80
2022/08/21 08:56:47;;;;;;;6.47;3.27;;;;;;;25.11;72.35;98447.63;1763737;81;21055;-81
2022/08/21 08:59:26;;;;;;;8.25;3.58;;;;;;;25.22;71.40;98444.46;1768350;81;21054;-80
2022/08/21 09:01:53;;;;;;;7.75;3.20;;;;;;;25.20;68.63;98452.05;1755275;81;21538;-80
2022/08/21 09:04:24;;;;;;;8.95;3.60;;;;;;;25.24;69.76;98439.33;1741214;81;21033;-80
2022/08/21 09:07:20;;;;;;;7.37;3.27;;;;;;;25.20;70.76;98444.06;1759035;81;21000;-80
2022/08/21 09:10:17;;;;;;;10.60;3.75;;;;;;;25.31;71.02;98438.27;1763784;81;21039;-80
2022/08/21 09:13:01;;;;;;;7.17;3.55;;;;;;;25.32;69.35;98437.26;1761222;81;21043;-80
2022/08/21 09:16:07;;;;;;;6.65;3.37;;;;;;;25.35;69.08;98432.48;1768557;81;21003;-80
2022/08/21 09:19:05;;;;;;;6.87;3.62;;;;;;;25.37;69.21;98428.35;1768810;81;21074;-80
2022/08/21 09:22:10;;;;;;;8.75;3.40;;;;;;;25.36;69.61;98431.48;1766592;81;20967;-80
2022/08/21 09:24:42;;;;;;;7.70;3.65;;;;;;;25.33;68.68;98437.63;1755702;81;21086;-80
2022/08/21 09:27:16;;;;;;;9.27;3.30;;;;;;;25.34;67.68;98435.29;1764340;81;20999;-82
2022/08/21 09:29:47;;;;;;;9.08;3.50;;;;;;;25.33;67.29;98430.47;1765987;81;21043;-82
2022/08/21 09:32:28;;;;;;;10.85;3.60;;;;;;;25.30;67.38;98424.59;1768783;81;21499;-80
2022/08/21 09:35:16;;;;;;;10.82;3.37;;;;;;;25.25;67.26;98413.09;1765847;81;21007;-82
2022/08/21 09:38:04;;;;;;;9.00;3.40;;;;;;;25.29;67.97;98412.30;1768723;81;21004;-82
2022/08/21 09:40:42;;;;;;;7.80;3.10;;;;;;;25.27;67.24;98407.13;1770855;81;21118;-80
2022/08/21 09:43:19;;;;;;;7.03;3.45;;;;;;;25.37;67.83;98403.08;1768504;81;21023;-81
2022/08/21 09:45:48;;;;;;;9.00;3.60;;;;;;;25.38;65.37;98403.41;1768873;81;21601;-80
2022/08/21 09:48:22;;;;;;;9.35;3.80;;;;;;;25.42;66.75;98393.30;1763878;81;21019;-80
2022/08/21 09:50:51;;;;;;;6.65;3.17;;;;;;;25.48;65.97;98400.19;1763751;81;21452;-80
2022/08/21 09:53:23;;;;;;;8.13;3.35;;;;;;;25.53;64.78;98400.58;1761623;81;21527;-80
2022/08/21 09:58:48;;;;;;;7.75;3.58;;;;;;;25.60;64.78;98396.81;1769679;81;21018;-80
2022/08/21 10:01:22;;;;;;;11.48;3.30;;;;;;;25.73;65.07;98389.80;1764415;81;21508;-81
2022/08/21 10:04:05;;;;;;;7.37;3.15;;;;;;;25.93;64.53;98386.02;1763865;81;21055;-79
2022/08/21 10:06:34;;;;;;;9.95;3.50;;;;;;;26.02;63.79;98387.41;1763516;81;21007;-79
2022/08/21 10:09:14;;;;;;;9.58;3.37;;;;;;;26.08;62.59;98395.61;1767437;81;20987;-80
2022/08/21 10:11:46;;;;;;;4.95;3.10;;;;;;;26.16;62.56;98394.37;1768402;81;21057;-81
2022/08/21 10:14:47;;;;;;;5.83;3.30;;;;;;;26.16;62.38;98393.51;1766748;81;20995;-80
2022/08/21 10:17:34;;;;;;;9.45;3.27;;;;;;;26.22;62.89;98396.88;1761858;81;21266;-80
2022/08/21 10:20:21;;;;;;;7.33;3.42;;;;;;;26.29;62.69;98391.28;1759959;81;21074;-80
2022/08/21 10:23:16;;;;;;;8.18;3.58;;;;;;;26.26;61.89;98394.75;1759765;81;21046;-80
2022/08/21 10:25:54;;;;;;;9.13;3.15;;;;;;;25.97;62.14;98389.21;1704780;81;21004;-80
2022/08/21 10:28:28;;;;;;;9.48;3.60;;;;;;;25.74;62.40;98385.63;1744441;81;21542;-80
2022/08/21 10:31:09;;;;;;;7.90;3.72;;;;;;;25.46;63.43;98382.20;1745059;81;21003;-80
2022/08/21 10:34:14;;;;;;;8.98;3.87;;;;;;;25.32;64.26;98380.89;1745127;81;21558;-84
2022/08/21 10:37:15;;;;;;;8.40;3.90;;;;;;;25.16;65.57;98388.16;1749789;81;21511;-81
2022/08/21 10:39:53;;;;;;;9.05;3.65;;;;;;;24.87;67.15;98395.44;1746632;81;21554;-80
2022/08/21 10:43:05;;;;;;;8.73;4.20;;;;;;;24.57;68.37;98394.70;1756168;81;21023;-80
2022/08/21 10:45:58;;;;;;;12.10;4.00;;;;;;;24.47;69.00;98383.24;1670802;84;21067;-79
2022/08/21 10:48:47;;;;;;;9.85;4.95;;;;;;;24.21;70.59;98387.84;1756357;81;21522;-79
2022/08/21 10:51:40;;;;;;;11.12;3.95;;;;;;;24.08;70.53;98392.63;1758315;81;21589;-79
2022/08/21 10:54:40;;;;;;;10.88;3.83;;;;;;;24.06;70.86;98386.13;1758944;81;21043;-79
2022/08/21 10:57:33;;;;;;;6.45;3.77;;;;;;;23.94;71.69;98392.07;1760849;81;21019;-79
2022/08/21 11:00:11;;;;;;;8.30;4.12;;;;;;;23.93;71.52;98398.34;1705879;83;21055;-81
2022/08/21 11:02:51;;;;;;;10.98;4.37;;;;;;;23.77;71.97;98392.27;1745292;81;20992;-79
2022/08/21 11:05:32;;;;;;;8.23;4.10;;;;;;;23.55;73.79;98369.96;1759934;80;21077;-80
2022/08/21 11:08:15;;;;;;;9.10;4.12;;;;;;;23.51;72.55;98358.78;1746744;80;20983;-79
2022/08/21 11:10:52;;;;;;;8.20;4.08;;;;;;;23.49;72.85;98356.75;1763440;80;20964;-81
2022/08/21 11:13:30;;;;;;;6.95;3.47;;;;;;;23.55;72.58;98350.89;1761834;80;21068;-80
2022/08/21 11:16:19;;;;;;;11.05;3.72;;;;;;;23.60;71.94;98347.84;1748522;81;21472;-79
2022/08/21 11:18:58;;;;;;;11.03;3.85;;;;;;;23.68;71.84;98351.12;1743395;81;21035;-81
2022/08/21 11:21:44;;;;;;;7.25;3.67;;;;;;;23.65;71.58;98371.30;1763838;81;21054;-79
2022/08/21 11:24:38;;;;;;;10.93;3.90;;;;;;;23.61;71.67;98380.02;1718156;81;20956;-79
2022/08/21 11:27:35;;;;;;;16.45;5.22;;;;;;;23.55;71.92;98393.34;1762868;81;20976;-78
2022/08/21 11:30:02;;;;;;;13.55;5.00;;;;;;;23.58;73.25;98400.20;1763369;81;21172;-78
2022/08/21 11:32:51;;;;;;;13.38;4.25;;;;;;;23.57;75.06;98389.23;1756025;81;21066;-78
2022/08/21 11:35:34;;;;;;;15.53;3.42;;;;;;;23.52;74.00;98408.22;1756201;81;20984;-78
2022/08/21 11:38:12;;;;;;;6.17;3.10;;;;;;;23.34;75.17;98404.07;1731204;83;21032;-78
2022/08/21 11:41:28;;;;;;;9.78;3.20;;;;;;;23.26;74.38;98408.36;1714635;83;21027;-79
2022/08/21 11:44:03;;;;;;;7.47;3.17;;;;;;;23.08;75.52;98420.95;1730344;81;21038;-79
2022/08/21 11:46:44;;;;;;;6.55;2.70;;;;;;;22.96;76.00;98428.59;1764565;81;20976;-79
2022/08/21 11:49:28;;;;;;;5.87;2.50;;;;;;;22.88;76.08;98431.08;1740607;81;21058;-78
2022/08/21 11:52:23;;;;;;;7.10;2.17;;;;;;;22.83;76.22;98430.16;1731342;82;21064;-77